sensor_id;sensor_type;location;lat;lon;timestamp;P1;durP1;ratioP1;P2;durP2;ratioP2
40591;SDS011;26301;42.832;23.918;2024-02-21T00:01:41;15.65;;;8.32;;
40591;SDS011;26301;42.832;23.918;2024-02-21T00:04:07;13.52;;;8.50;;
40591;SDS011;26301;42.832;23.918;2024-02-21T00:06:32;11.88;;;8.02;;
40591;SDS011;26301;42.832;23.918;2024-02-21T00:08:58;14.77;;;8.85;;
40591;SDS011;26301;42.832;23.918;2024-02-21T00:11:23;11.85;;;7.65;;
40591;SDS011;26301;42.832;23.918;2024-02-21T00:13:49;13.50;;;7.85;;
40591;SDS011;26301;42.832;23.918;2024-02-21T00:16:16;10.07;;;6.90;;
40591;SDS011;26301;42.832;23.918;2024-02-21T00:18:42;10.73;;;6.63;;
40591;SDS011;26301;42.832;23.918;2024-02-21T00:21:08;9.85;;;7.05;;
40591;SDS011;26301;42.832;23.918;2024-02-21T00:23:33;11.18;;;7.28;;
40591;SDS011;26301;42.832;23.918;2024-02-21T00:25:59;11.20;;;7.18;;
40591;SDS011;26301;42.832;23.918;2024-02-21T00:28:24;11.30;;;7.47;;
40591;SDS011;26301;42.832;23.918;2024-02-21T00:30:50;10.63;;;7.60;;
40591;SDS011;26301;42.832;23.918;2024-02-21T00:33:18;10.93;;;8.05;;
40591;SDS011;26301;42.832;23.918;2024-02-21T00:35:44;10.98;;;7.43;;
40591;SDS011;26301;42.832;23.918;2024-02-21T00:38:10;9.95;;;7.03;;
40591;SDS011;26301;42.832;23.918;2024-02-21T00:40:35;11.48;;;7.47;;
40591;SDS011;26301;42.832;23.918;2024-02-21T00:43:01;10.77;;;7.38;;
40591;SDS011;26301;42.832;23.918;2024-02-21T00:45:26;11.25;;;7.22;;
40591;SDS011;26301;42.832;23.918;2024-02-21T00:47:52;11.13;;;7.72;;
40591;SDS011;26301;42.832;23.918;2024-02-21T00:50:17;11.60;;;7.93;;
40591;SDS011;26301;42.832;23.918;2024-02-21T00:52:43;10.90;;;7.43;;
40591;SDS011;26301;42.832;23.918;2024-02-21T00:55:08;12.10;;;8.02;;
40591;SDS011;26301;42.832;23.918;2024-02-21T00:57:34;12.02;;;7.70;;
40591;SDS011;26301;42.832;23.918;2024-02-21T01:00:00;11.68;;;7.90;;
40591;SDS011;26301;42.832;23.918;2024-02-21T01:02:27;10.23;;;7.55;;
40591;SDS011;26301;42.832;23.918;2024-02-21T01:04:52;10.75;;;7.15;;
40591;SDS011;26301;42.832;23.918;2024-02-21T01:07:18;10.85;;;7.57;;
40591;SDS011;26301;42.832;23.918;2024-02-21T01:09:43;10.43;;;7.22;;
40591;SDS011;26301;42.832;23.918;2024-02-21T01:12:08;12.13;;;8.35;;
40591;SDS011;26301;42.832;23.918;2024-02-21T01:14:34;12.02;;;8.00;;
40591;SDS011;26301;42.832;23.918;2024-02-21T01:16:59;11.32;;;7.25;;
40591;SDS011;26301;42.832;23.918;2024-02-21T01:19:25;11.52;;;8.13;;
40591;SDS011;26301;42.832;23.918;2024-02-21T01:21:51;11.60;;;8.15;;
40591;SDS011;26301;42.832;23.918;2024-02-21T01:24:17;11.25;;;7.53;;
40591;SDS011;26301;42.832;23.918;2024-02-21T01:26:42;11.68;;;7.85;;
40591;SDS011;26301;42.832;23.918;2024-02-21T01:29:08;12.95;;;8.23;;
40591;SDS011;26301;42.832;23.918;2024-02-21T01:31:33;13.55;;;7.88;;
40591;SDS011;26301;42.832;23.918;2024-02-21T01:33:59;12.65;;;7.85;;
40591;SDS011;26301;42.832;23.918;2024-02-21T01:36:24;12.93;;;7.50;;
40591;SDS011;26301;42.832;23.918;2024-02-21T01:38:50;10.55;;;7.50;;
40591;SDS011;26301;42.832;23.918;2024-02-21T01:41:15;15.05;;;8.50;;
40591;SDS011;26301;42.832;23.918;2024-02-21T01:43:41;11.70;;;7.88;;
40591;SDS011;26301;42.832;23.918;2024-02-21T01:46:07;11.80;;;7.25;;
40591;SDS011;26301;42.832;23.918;2024-02-21T01:48:33;12.13;;;8.23;;
40591;SDS011;26301;42.832;23.918;2024-02-21T01:50:58;12.75;;;7.85;;
40591;SDS011;26301;42.832;23.918;2024-02-21T01:53:30;12.50;;;7.90;;
40591;SDS011;26301;42.832;23.918;2024-02-21T01:55:59;11.55;;;7.60;;
40591;SDS011;26301;42.832;23.918;2024-02-21T01:58:26;11.45;;;8.05;;
40591;SDS011;26301;42.832;23.918;2024-02-21T02:00:53;11.65;;;8.05;;
40591;SDS011;26301;42.832;23.918;2024-02-21T02:03:21;11.43;;;7.57;;
40591;SDS011;26301;42.832;23.918;2024-02-21T02:05:47;13.27;;;7.20;;
40591;SDS011;26301;42.832;23.918;2024-02-21T02:08:14;10.25;;;6.93;;
40591;SDS011;26301;42.832;23.918;2024-02-21T02:10:40;12.48;;;8.05;;
40591;SDS011;26301;42.832;23.918;2024-02-21T02:13:06;10.77;;;7.38;;
40591;SDS011;26301;42.832;23.918;2024-02-21T02:15:41;11.85;;;7.50;;
40591;SDS011;26301;42.832;23.918;2024-02-21T02:18:08;9.57;;;6.80;;
40591;SDS011;26301;42.832;23.918;2024-02-21T02:20:35;9.95;;;6.82;;
40591;SDS011;26301;42.832;23.918;2024-02-21T02:23:03;10.90;;;7.15;;
40591;SDS011;26301;42.832;23.918;2024-02-21T02:25:33;9.82;;;6.88;;
40591;SDS011;26301;42.832;23.918;2024-02-21T02:27:59;10.40;;;6.82;;
40591;SDS011;26301;42.832;23.918;2024-02-21T02:30:25;10.38;;;7.28;;
40591;SDS011;26301;42.832;23.918;2024-02-21T02:32:50;9.00;;;6.32;;
40591;SDS011;26301;42.832;23.918;2024-02-21T02:35:16;12.02;;;6.68;;
40591;SDS011;26301;42.832;23.918;2024-02-21T02:37:47;10.02;;;7.03;;
40591;SDS011;26301;42.832;23.918;2024-02-21T02:40:13;9.95;;;6.57;;
40591;SDS011;26301;42.832;23.918;2024-02-21T02:42:39;9.88;;;6.45;;
40591;SDS011;26301;42.832;23.918;2024-02-21T02:45:05;10.30;;;6.70;;
40591;SDS011;26301;42.832;23.918;2024-02-21T02:47:31;10.52;;;6.55;;
40591;SDS011;26301;42.832;23.918;2024-02-21T02:49:56;9.10;;;5.57;;
40591;SDS011;26301;42.832;23.918;2024-02-21T02:52:21;9.57;;;6.38;;
40591;SDS011;26301;42.832;23.918;2024-02-21T02:54:47;9.32;;;6.63;;
40591;SDS011;26301;42.832;23.918;2024-02-21T02:57:17;8.57;;;6.00;;
40591;SDS011;26301;42.832;23.918;2024-02-21T02:59:46;9.65;;;6.13;;
40591;SDS011;26301;42.832;23.918;2024-02-21T03:02:15;8.85;;;5.50;;
40591;SDS011;26301;42.832;23.918;2024-02-21T03:04:41;8.30;;;5.93;;
40591;SDS011;26301;42.832;23.918;2024-02-21T03:07:07;9.93;;;6.77;;
40591;SDS011;26301;42.832;23.918;2024-02-21T03:09:32;8.90;;;5.97;;
40591;SDS011;26301;42.832;23.918;2024-02-21T03:11:57;9.57;;;6.38;;
40591;SDS011;26301;42.832;23.918;2024-02-21T03:14:32;8.57;;;6.07;;
40591;SDS011;26301;42.832;23.918;2024-02-21T03:16:58;9.77;;;6.45;;
40591;SDS011;26301;42.832;23.918;2024-02-21T03:19:24;10.00;;;6.00;;
40591;SDS011;26301;42.832;23.918;2024-02-21T03:21:50;7.95;;;6.00;;
40591;SDS011;26301;42.832;23.918;2024-02-21T03:24:16;6.95;;;5.57;;
40591;SDS011;26301;42.832;23.918;2024-02-21T03:26:42;8.57;;;5.60;;
40591;SDS011;26301;42.832;23.918;2024-02-21T03:29:07;7.35;;;5.78;;
40591;SDS011;26301;42.832;23.918;2024-02-21T03:31:33;7.35;;;5.10;;
40591;SDS011;26301;42.832;23.918;2024-02-21T03:34:00;7.63;;;5.25;;
40591;SDS011;26301;42.832;23.918;2024-02-21T03:36:26;7.95;;;5.75;;
40591;SDS011;26301;42.832;23.918;2024-02-21T03:38:51;8.73;;;5.88;;
40591;SDS011;26301;42.832;23.918;2024-02-21T03:41:17;7.85;;;5.03;;
40591;SDS011;26301;42.832;23.918;2024-02-21T03:43:42;6.88;;;4.97;;
40591;SDS011;26301;42.832;23.918;2024-02-21T03:46:08;8.20;;;5.47;;
40591;SDS011;26301;42.832;23.918;2024-02-21T03:48:33;8.77;;;5.53;;
40591;SDS011;26301;42.832;23.918;2024-02-21T03:50:59;9.00;;;5.18;;
40591;SDS011;26301;42.832;23.918;2024-02-21T03:53:24;8.35;;;4.32;;
40591;SDS011;26301;42.832;23.918;2024-02-21T03:55:50;6.97;;;4.38;;
40591;SDS011;26301;42.832;23.918;2024-02-21T03:58:15;7.57;;;4.90;;
40591;SDS011;26301;42.832;23.918;2024-02-21T04:00:41;6.82;;;4.93;;
40591;SDS011;26301;42.832;23.918;2024-02-21T04:03:06;6.53;;;4.45;;
40591;SDS011;26301;42.832;23.918;2024-02-21T04:05:32;6.72;;;4.80;;
40591;SDS011;26301;42.832;23.918;2024-02-21T04:07:58;7.25;;;4.25;;
40591;SDS011;26301;42.832;23.918;2024-02-21T04:10:23;8.07;;;5.13;;
40591;SDS011;26301;42.832;23.918;2024-02-21T04:12:49;6.97;;;4.70;;
40591;SDS011;26301;42.832;23.918;2024-02-21T04:15:15;6.43;;;4.67;;
40591;SDS011;26301;42.832;23.918;2024-02-21T04:17:41;6.60;;;4.83;;
40591;SDS011;26301;42.832;23.918;2024-02-21T04:20:13;6.80;;;4.47;;
40591;SDS011;26301;42.832;23.918;2024-02-21T04:22:39;7.30;;;4.65;;
40591;SDS011;26301;42.832;23.918;2024-02-21T04:25:05;8.18;;;5.18;;
40591;SDS011;26301;42.832;23.918;2024-02-21T04:27:31;6.73;;;4.70;;
40591;SDS011;26301;42.832;23.918;2024-02-21T04:29:56;7.20;;;4.72;;
40591;SDS011;26301;42.832;23.918;2024-02-21T04:32:22;6.63;;;5.13;;
40591;SDS011;26301;42.832;23.918;2024-02-21T04:34:48;6.03;;;4.43;;
40591;SDS011;26301;42.832;23.918;2024-02-21T04:37:13;7.20;;;3.95;;
40591;SDS011;26301;42.832;23.918;2024-02-21T04:39:39;6.53;;;4.68;;
40591;SDS011;26301;42.832;23.918;2024-02-21T04:42:04;5.90;;;4.20;;
40591;SDS011;26301;42.832;23.918;2024-02-21T04:44:30;5.90;;;4.03;;
40591;SDS011;26301;42.832;23.918;2024-02-21T04:46:55;5.65;;;4.43;;
40591;SDS011;26301;42.832;23.918;2024-02-21T04:49:21;6.70;;;4.47;;
40591;SDS011;26301;42.832;23.918;2024-02-21T04:51:46;5.82;;;4.15;;
40591;SDS011;26301;42.832;23.918;2024-02-21T04:54:12;5.22;;;3.83;;
40591;SDS011;26301;42.832;23.918;2024-02-21T04:56:37;6.20;;;4.32;;
40591;SDS011;26301;42.832;23.918;2024-02-21T04:59:03;7.30;;;4.43;;
40591;SDS011;26301;42.832;23.918;2024-02-21T05:01:29;8.00;;;4.82;;
40591;SDS011;26301;42.832;23.918;2024-02-21T05:03:54;8.32;;;4.70;;
40591;SDS011;26301;42.832;23.918;2024-02-21T05:06:20;7.47;;;4.60;;
40591;SDS011;26301;42.832;23.918;2024-02-21T05:08:45;6.70;;;4.95;;
40591;SDS011;26301;42.832;23.918;2024-02-21T05:11:10;8.10;;;6.18;;
40591;SDS011;26301;42.832;23.918;2024-02-21T05:13:36;10.30;;;7.72;;
40591;SDS011;26301;42.832;23.918;2024-02-21T05:16:01;8.65;;;5.95;;
40591;SDS011;26301;42.832;23.918;2024-02-21T05:18:28;9.07;;;6.15;;
40591;SDS011;26301;42.832;23.918;2024-02-21T05:20:53;8.32;;;5.97;;
40591;SDS011;26301;42.832;23.918;2024-02-21T05:23:19;7.88;;;5.68;;
40591;SDS011;26301;42.832;23.918;2024-02-21T05:25:44;8.57;;;5.50;;
40591;SDS011;26301;42.832;23.918;2024-02-21T05:28:10;12.27;;;6.38;;
40591;SDS011;26301;42.832;23.918;2024-02-21T05:30:35;7.28;;;4.80;;
40591;SDS011;26301;42.832;23.918;2024-02-21T05:33:04;7.72;;;5.35;;
40591;SDS011;26301;42.832;23.918;2024-02-21T05:35:30;6.63;;;4.55;;
40591;SDS011;26301;42.832;23.918;2024-02-21T05:37:56;7.72;;;4.70;;
40591;SDS011;26301;42.832;23.918;2024-02-21T05:40:21;8.25;;;5.85;;
40591;SDS011;26301;42.832;23.918;2024-02-21T05:42:47;7.95;;;5.85;;
40591;SDS011;26301;42.832;23.918;2024-02-21T05:45:12;9.68;;;6.47;;
40591;SDS011;26301;42.832;23.918;2024-02-21T05:47:39;7.78;;;5.70;;
40591;SDS011;26301;42.832;23.918;2024-02-21T05:50:05;10.50;;;6.75;;
40591;SDS011;26301;42.832;23.918;2024-02-21T05:52:31;9.20;;;6.75;;
40591;SDS011;26301;42.832;23.918;2024-02-21T05:54:56;9.20;;;6.78;;
40591;SDS011;26301;42.832;23.918;2024-02-21T05:57:22;12.50;;;8.32;;
40591;SDS011;26301;42.832;23.918;2024-02-21T05:59:47;12.18;;;8.23;;
40591;SDS011;26301;42.832;23.918;2024-02-21T06:02:13;12.43;;;8.60;;
40591;SDS011;26301;42.832;23.918;2024-02-21T06:04:38;11.73;;;8.60;;
40591;SDS011;26301;42.832;23.918;2024-02-21T06:07:04;11.70;;;7.63;;
40591;SDS011;26301;42.832;23.918;2024-02-21T06:09:30;8.70;;;6.57;;
40591;SDS011;26301;42.832;23.918;2024-02-21T06:11:55;9.68;;;6.45;;
40591;SDS011;26301;42.832;23.918;2024-02-21T06:14:21;9.15;;;6.85;;
40591;SDS011;26301;42.832;23.918;2024-02-21T06:16:46;10.05;;;6.50;;
40591;SDS011;26301;42.832;23.918;2024-02-21T06:19:12;10.13;;;6.63;;
40591;SDS011;26301;42.832;23.918;2024-02-21T06:21:37;11.13;;;7.20;;
40591;SDS011;26301;42.832;23.918;2024-02-21T06:24:03;8.15;;;6.25;;
40591;SDS011;26301;42.832;23.918;2024-02-21T06:26:28;8.82;;;6.50;;
40591;SDS011;26301;42.832;23.918;2024-02-21T06:28:54;11.05;;;7.05;;
40591;SDS011;26301;42.832;23.918;2024-02-21T06:31:19;11.77;;;8.02;;
40591;SDS011;26301;42.832;23.918;2024-02-21T06:33:45;12.18;;;8.50;;
40591;SDS011;26301;42.832;23.918;2024-02-21T06:36:10;11.70;;;7.47;;
40591;SDS011;26301;42.832;23.918;2024-02-21T06:38:36;12.05;;;8.75;;
40591;SDS011;26301;42.832;23.918;2024-02-21T06:41:01;11.77;;;9.50;;
40591;SDS011;26301;42.832;23.918;2024-02-21T06:43:28;14.80;;;10.00;;
40591;SDS011;26301;42.832;23.918;2024-02-21T06:45:53;13.70;;;9.20;;
40591;SDS011;26301;42.832;23.918;2024-02-21T06:48:20;15.50;;;9.60;;
40591;SDS011;26301;42.832;23.918;2024-02-21T06:50:45;15.70;;;10.07;;
40591;SDS011;26301;42.832;23.918;2024-02-21T06:53:11;15.85;;;10.32;;
40591;SDS011;26301;42.832;23.918;2024-02-21T06:55:37;15.90;;;9.65;;
40591;SDS011;26301;42.832;23.918;2024-02-21T06:58:02;15.82;;;10.05;;
40591;SDS011;26301;42.832;23.918;2024-02-21T07:00:28;17.60;;;9.43;;
40591;SDS011;26301;42.832;23.918;2024-02-21T07:02:54;16.80;;;10.18;;
40591;SDS011;26301;42.832;23.918;2024-02-21T07:05:20;13.18;;;8.60;;
40591;SDS011;26301;42.832;23.918;2024-02-21T07:07:45;10.95;;;8.00;;
40591;SDS011;26301;42.832;23.918;2024-02-21T07:10:11;10.85;;;7.75;;
40591;SDS011;26301;42.832;23.918;2024-02-21T07:12:36;10.13;;;7.25;;
40591;SDS011;26301;42.832;23.918;2024-02-21T07:15:07;8.13;;;6.05;;
40591;SDS011;26301;42.832;23.918;2024-02-21T07:17:32;8.60;;;6.00;;
40591;SDS011;26301;42.832;23.918;2024-02-21T07:19:58;8.40;;;6.03;;
40591;SDS011;26301;42.832;23.918;2024-02-21T07:22:24;8.02;;;5.93;;
40591;SDS011;26301;42.832;23.918;2024-02-21T07:24:50;8.75;;;6.07;;
40591;SDS011;26301;42.832;23.918;2024-02-21T07:27:15;9.30;;;6.55;;
40591;SDS011;26301;42.832;23.918;2024-02-21T07:29:41;8.20;;;5.57;;
40591;SDS011;26301;42.832;23.918;2024-02-21T07:32:07;8.93;;;6.45;;
40591;SDS011;26301;42.832;23.918;2024-02-21T07:34:33;7.53;;;5.60;;
40591;SDS011;26301;42.832;23.918;2024-02-21T07:36:58;8.52;;;5.57;;
40591;SDS011;26301;42.832;23.918;2024-02-21T07:39:24;7.20;;;5.50;;
40591;SDS011;26301;42.832;23.918;2024-02-21T07:41:49;8.50;;;5.65;;
40591;SDS011;26301;42.832;23.918;2024-02-21T07:44:15;7.30;;;5.20;;
40591;SDS011;26301;42.832;23.918;2024-02-21T07:46:40;8.75;;;5.30;;
40591;SDS011;26301;42.832;23.918;2024-02-21T07:49:06;6.53;;;5.05;;
40591;SDS011;26301;42.832;23.918;2024-02-21T07:51:31;6.43;;;4.90;;
40591;SDS011;26301;42.832;23.918;2024-02-21T07:53:57;7.15;;;5.18;;
40591;SDS011;26301;42.832;23.918;2024-02-21T07:56:22;7.30;;;5.13;;
40591;SDS011;26301;42.832;23.918;2024-02-21T07:58:48;7.75;;;5.65;;
40591;SDS011;26301;42.832;23.918;2024-02-21T08:01:19;9.52;;;5.18;;
40591;SDS011;26301;42.832;23.918;2024-02-21T08:03:47;8.35;;;4.72;;
40591;SDS011;26301;42.832;23.918;2024-02-21T08:06:13;7.72;;;5.40;;
40591;SDS011;26301;42.832;23.918;2024-02-21T08:08:39;7.57;;;6.07;;
40591;SDS011;26301;42.832;23.918;2024-02-21T08:11:04;7.28;;;4.80;;
40591;SDS011;26301;42.832;23.918;2024-02-21T08:13:30;7.57;;;5.45;;
40591;SDS011;26301;42.832;23.918;2024-02-21T08:15:56;7.07;;;5.53;;
40591;SDS011;26301;42.832;23.918;2024-02-21T08:18:22;8.98;;;5.50;;
40591;SDS011;26301;42.832;23.918;2024-02-21T08:20:47;8.13;;;5.43;;
40591;SDS011;26301;42.832;23.918;2024-02-21T08:23:15;7.93;;;5.18;;
40591;SDS011;26301;42.832;23.918;2024-02-21T08:25:42;7.15;;;4.80;;
40591;SDS011;26301;42.832;23.918;2024-02-21T08:28:07;6.60;;;5.18;;
40591;SDS011;26301;42.832;23.918;2024-02-21T08:30:33;5.35;;;3.80;;
40591;SDS011;26301;42.832;23.918;2024-02-21T08:32:59;5.90;;;4.45;;
40591;SDS011;26301;42.832;23.918;2024-02-21T08:35:24;6.82;;;5.00;;
40591;SDS011;26301;42.832;23.918;2024-02-21T08:37:50;6.50;;;4.65;;
40591;SDS011;26301;42.832;23.918;2024-02-21T08:40:15;9.40;;;5.05;;
40591;SDS011;26301;42.832;23.918;2024-02-21T08:42:46;7.43;;;5.18;;
40591;SDS011;26301;42.832;23.918;2024-02-21T08:45:12;6.07;;;4.28;;
40591;SDS011;26301;42.832;23.918;2024-02-21T08:47:40;6.32;;;4.13;;
40591;SDS011;26301;42.832;23.918;2024-02-21T08:50:07;5.13;;;3.88;;
40591;SDS011;26301;42.832;23.918;2024-02-21T08:52:35;6.82;;;4.13;;
40591;SDS011;26301;42.832;23.918;2024-02-21T08:55:00;6.10;;;4.03;;
40591;SDS011;26301;42.832;23.918;2024-02-21T08:57:26;5.18;;;3.80;;
40591;SDS011;26301;42.832;23.918;2024-02-21T08:59:52;5.47;;;3.83;;
40591;SDS011;26301;42.832;23.918;2024-02-21T09:02:18;10.50;;;7.07;;
40591;SDS011;26301;42.832;23.918;2024-02-21T09:04:43;6.47;;;3.40;;
40591;SDS011;26301;42.832;23.918;2024-02-21T09:07:09;5.78;;;3.72;;
40591;SDS011;26301;42.832;23.918;2024-02-21T09:09:35;5.10;;;3.50;;
40591;SDS011;26301;42.832;23.918;2024-02-21T09:12:00;4.82;;;3.45;;
40591;SDS011;26301;42.832;23.918;2024-02-21T09:14:34;4.65;;;3.55;;
40591;SDS011;26301;42.832;23.918;2024-02-21T09:17:06;4.95;;;3.42;;
40591;SDS011;26301;42.832;23.918;2024-02-21T09:19:31;7.18;;;5.38;;
40591;SDS011;26301;42.832;23.918;2024-02-21T09:21:57;8.38;;;6.47;;
40591;SDS011;26301;42.832;23.918;2024-02-21T09:24:22;21.83;;;17.75;;
40591;SDS011;26301;42.832;23.918;2024-02-21T09:26:47;5.78;;;4.30;;
40591;SDS011;26301;42.832;23.918;2024-02-21T09:29:13;5.40;;;3.85;;
40591;SDS011;26301;42.832;23.918;2024-02-21T09:31:40;7.75;;;4.50;;
40591;SDS011;26301;42.832;23.918;2024-02-21T09:34:07;8.32;;;5.75;;
40591;SDS011;26301;42.832;23.918;2024-02-21T09:36:32;4.63;;;3.15;;
40591;SDS011;26301;42.832;23.918;2024-02-21T09:38:58;4.45;;;2.95;;
40591;SDS011;26301;42.832;23.918;2024-02-21T09:41:26;5.05;;;2.95;;
40591;SDS011;26301;42.832;23.918;2024-02-21T09:43:55;4.35;;;3.10;;
40591;SDS011;26301;42.832;23.918;2024-02-21T09:47:05;5.07;;;2.95;;
40591;SDS011;26301;42.832;23.918;2024-02-21T09:49:32;5.28;;;2.60;;
40591;SDS011;26301;42.832;23.918;2024-02-21T09:52:02;3.90;;;2.75;;
40591;SDS011;26301;42.832;23.918;2024-02-21T09:54:29;4.25;;;2.97;;
40591;SDS011;26301;42.832;23.918;2024-02-21T09:56:59;4.65;;;3.30;;
40591;SDS011;26301;42.832;23.918;2024-02-21T09:59:25;4.28;;;3.08;;
40591;SDS011;26301;42.832;23.918;2024-02-21T10:01:53;4.05;;;2.97;;
40591;SDS011;26301;42.832;23.918;2024-02-21T10:04:19;5.18;;;3.45;;
40591;SDS011;26301;42.832;23.918;2024-02-21T10:06:45;5.32;;;3.15;;
40591;SDS011;26301;42.832;23.918;2024-02-21T10:09:32;5.30;;;3.63;;
40591;SDS011;26301;42.832;23.918;2024-02-21T10:12:10;4.95;;;3.80;;
40591;SDS011;26301;42.832;23.918;2024-02-21T10:14:37;4.72;;;3.22;;
40591;SDS011;26301;42.832;23.918;2024-02-21T10:17:03;13.60;;;7.95;;
40591;SDS011;26301;42.832;23.918;2024-02-21T10:19:34;5.65;;;3.78;;
40591;SDS011;26301;42.832;23.918;2024-02-21T10:22:03;4.18;;;3.00;;
40591;SDS011;26301;42.832;23.918;2024-02-21T10:26:59;5.57;;;3.58;;
40591;SDS011;26301;42.832;23.918;2024-02-21T10:29:31;5.28;;;3.60;;
40591;SDS011;26301;42.832;23.918;2024-02-21T10:32:06;4.57;;;3.25;;
40591;SDS011;26301;42.832;23.918;2024-02-21T10:34:33;4.43;;;3.05;;
40591;SDS011;26301;42.832;23.918;2024-02-21T10:37:09;5.72;;;4.13;;
40591;SDS011;26301;42.832;23.918;2024-02-21T10:39:39;5.85;;;3.53;;
40591;SDS011;26301;42.832;23.918;2024-02-21T10:42:05;5.55;;;3.60;;
40591;SDS011;26301;42.832;23.918;2024-02-21T10:44:34;6.22;;;3.10;;
40591;SDS011;26301;42.832;23.918;2024-02-21T10:47:04;4.00;;;2.70;;
40591;SDS011;26301;42.832;23.918;2024-02-21T10:49:38;3.80;;;2.05;;
40591;SDS011;26301;42.832;23.918;2024-02-21T10:54:44;3.72;;;2.50;;
40591;SDS011;26301;42.832;23.918;2024-02-21T10:57:13;2.83;;;1.83;;
40591;SDS011;26301;42.832;23.918;2024-02-21T10:59:40;3.63;;;2.28;;
40591;SDS011;26301;42.832;23.918;2024-02-21T11:02:06;4.50;;;2.53;;
40591;SDS011;26301;42.832;23.918;2024-02-21T11:04:31;3.10;;;1.95;;
40591;SDS011;26301;42.832;23.918;2024-02-21T11:07:05;2.50;;;1.92;;
40591;SDS011;26301;42.832;23.918;2024-02-21T11:09:31;4.15;;;2.67;;
40591;SDS011;26301;42.832;23.918;2024-02-21T11:11:58;4.43;;;2.70;;
40591;SDS011;26301;42.832;23.918;2024-02-21T11:14:25;3.92;;;2.20;;
40591;SDS011;26301;42.832;23.918;2024-02-21T11:16:52;4.40;;;2.80;;
40591;SDS011;26301;42.832;23.918;2024-02-21T11:19:21;3.10;;;2.40;;
40591;SDS011;26301;42.832;23.918;2024-02-21T11:21:48;3.92;;;2.60;;
40591;SDS011;26301;42.832;23.918;2024-02-21T11:24:25;3.80;;;2.47;;
40591;SDS011;26301;42.832;23.918;2024-02-21T11:27:09;5.32;;;2.70;;
40591;SDS011;26301;42.832;23.918;2024-02-21T11:29:48;3.00;;;2.30;;
40591;SDS011;26301;42.832;23.918;2024-02-21T11:32:23;3.40;;;2.40;;
40591;SDS011;26301;42.832;23.918;2024-02-21T11:35:00;3.50;;;2.40;;
40591;SDS011;26301;42.832;23.918;2024-02-21T11:37:32;4.25;;;2.70;;
40591;SDS011;26301;42.832;23.918;2024-02-21T11:39:58;4.22;;;2.95;;
40591;SDS011;26301;42.832;23.918;2024-02-21T11:42:28;4.72;;;2.53;;
40591;SDS011;26301;42.832;23.918;2024-02-21T11:44:54;6.32;;;2.90;;
40591;SDS011;26301;42.832;23.918;2024-02-21T11:47:22;3.42;;;2.17;;
40591;SDS011;26301;42.832;23.918;2024-02-21T11:49:48;3.85;;;2.30;;
40591;SDS011;26301;42.832;23.918;2024-02-21T11:52:26;3.35;;;2.20;;
40591;SDS011;26301;42.832;23.918;2024-02-21T11:54:52;4.60;;;2.40;;
40591;SDS011;26301;42.832;23.918;2024-02-21T11:57:18;4.32;;;2.20;;
40591;SDS011;26301;42.832;23.918;2024-02-21T11:59:44;3.70;;;2.17;;
40591;SDS011;26301;42.832;23.918;2024-02-21T12:02:10;2.92;;;1.90;;
40591;SDS011;26301;42.832;23.918;2024-02-21T12:04:37;3.58;;;2.35;;
40591;SDS011;26301;42.832;23.918;2024-02-21T12:07:02;3.10;;;2.10;;
40591;SDS011;26301;42.832;23.918;2024-02-21T12:09:31;3.40;;;2.10;;
40591;SDS011;26301;42.832;23.918;2024-02-21T12:11:57;3.60;;;2.40;;
40591;SDS011;26301;42.832;23.918;2024-02-21T12:14:24;3.92;;;2.72;;
40591;SDS011;26301;42.832;23.918;2024-02-21T12:16:50;5.60;;;3.38;;
40591;SDS011;26301;42.832;23.918;2024-02-21T12:19:16;3.15;;;2.30;;
40591;SDS011;26301;42.832;23.918;2024-02-21T12:21:42;3.65;;;2.35;;
40591;SDS011;26301;42.832;23.918;2024-02-21T12:24:12;3.50;;;2.33;;
40591;SDS011;26301;42.832;23.918;2024-02-21T12:26:56;3.92;;;2.20;;
40591;SDS011;26301;42.832;23.918;2024-02-21T12:29:22;4.20;;;2.20;;
40591;SDS011;26301;42.832;23.918;2024-02-21T12:31:49;5.90;;;3.38;;
40591;SDS011;26301;42.832;23.918;2024-02-21T12:34:15;8.93;;;5.50;;
40591;SDS011;26301;42.832;23.918;2024-02-21T12:36:42;6.40;;;3.85;;
40591;SDS011;26301;42.832;23.918;2024-02-21T12:39:09;11.43;;;5.65;;
40591;SDS011;26301;42.832;23.918;2024-02-21T12:41:35;4.07;;;2.58;;
40591;SDS011;26301;42.832;23.918;2024-02-21T12:44:03;4.95;;;2.85;;
40591;SDS011;26301;42.832;23.918;2024-02-21T12:46:35;6.10;;;3.85;;
40591;SDS011;26301;42.832;23.918;2024-02-21T12:49:01;7.68;;;3.53;;
40591;SDS011;26301;42.832;23.918;2024-02-21T12:51:27;4.93;;;2.63;;
40591;SDS011;26301;42.832;23.918;2024-02-21T12:53:53;16.67;;;9.77;;
40591;SDS011;26301;42.832;23.918;2024-02-21T12:56:20;9.55;;;6.65;;
40591;SDS011;26301;42.832;23.918;2024-02-21T12:58:46;19.58;;;13.13;;
40591;SDS011;26301;42.832;23.918;2024-02-21T13:01:12;5.03;;;2.88;;
40591;SDS011;26301;42.832;23.918;2024-02-21T13:03:37;6.78;;;4.90;;
40591;SDS011;26301;42.832;23.918;2024-02-21T13:06:03;5.43;;;3.10;;
40591;SDS011;26301;42.832;23.918;2024-02-21T13:08:29;3.97;;;2.50;;
40591;SDS011;26301;42.832;23.918;2024-02-21T13:10:55;4.45;;;2.25;;
40591;SDS011;26301;42.832;23.918;2024-02-21T13:13:20;3.53;;;2.13;;
40591;SDS011;26301;42.832;23.918;2024-02-21T13:15:46;3.92;;;2.38;;
40591;SDS011;26301;42.832;23.918;2024-02-21T13:18:11;4.43;;;2.75;;
40591;SDS011;26301;42.832;23.918;2024-02-21T13:20:37;6.40;;;4.30;;
40591;SDS011;26301;42.832;23.918;2024-02-21T13:23:03;4.72;;;2.80;;
40591;SDS011;26301;42.832;23.918;2024-02-21T13:25:28;3.50;;;2.22;;
40591;SDS011;26301;42.832;23.918;2024-02-21T13:27:54;3.67;;;2.50;;
40591;SDS011;26301;42.832;23.918;2024-02-21T13:30:21;4.88;;;2.42;;
40591;SDS011;26301;42.832;23.918;2024-02-21T13:32:47;3.83;;;2.33;;
40591;SDS011;26301;42.832;23.918;2024-02-21T13:35:13;4.15;;;2.33;;
40591;SDS011;26301;42.832;23.918;2024-02-21T13:37:39;2.67;;;1.88;;
40591;SDS011;26301;42.832;23.918;2024-02-21T13:40:05;3.65;;;2.13;;
40591;SDS011;26301;42.832;23.918;2024-02-21T13:42:31;4.05;;;2.40;;
40591;SDS011;26301;42.832;23.918;2024-02-21T13:44:57;3.63;;;2.10;;
40591;SDS011;26301;42.832;23.918;2024-02-21T13:47:22;2.92;;;1.77;;
40591;SDS011;26301;42.832;23.918;2024-02-21T13:49:48;4.47;;;2.50;;
40591;SDS011;26301;42.832;23.918;2024-02-21T13:52:13;2.75;;;1.98;;
40591;SDS011;26301;42.832;23.918;2024-02-21T13:54:39;2.95;;;2.00;;
40591;SDS011;26301;42.832;23.918;2024-02-21T13:57:05;3.28;;;1.90;;
40591;SDS011;26301;42.832;23.918;2024-02-21T13:59:30;2.95;;;2.00;;
40591;SDS011;26301;42.832;23.918;2024-02-21T14:01:58;3.30;;;2.10;;
40591;SDS011;26301;42.832;23.918;2024-02-21T14:04:24;3.58;;;2.40;;
40591;SDS011;26301;42.832;23.918;2024-02-21T14:06:49;4.35;;;2.45;;
40591;SDS011;26301;42.832;23.918;2024-02-21T14:09:15;3.08;;;2.08;;
40591;SDS011;26301;42.832;23.918;2024-02-21T14:11:40;3.97;;;2.22;;
40591;SDS011;26301;42.832;23.918;2024-02-21T14:14:07;7.00;;;4.35;;
40591;SDS011;26301;42.832;23.918;2024-02-21T14:16:32;5.85;;;3.50;;
40591;SDS011;26301;42.832;23.918;2024-02-21T14:18:58;5.75;;;3.17;;
40591;SDS011;26301;42.832;23.918;2024-02-21T14:21:23;5.07;;;3.50;;
40591;SDS011;26301;42.832;23.918;2024-02-21T14:23:49;3.10;;;2.15;;
40591;SDS011;26301;42.832;23.918;2024-02-21T14:26:14;2.95;;;2.10;;
40591;SDS011;26301;42.832;23.918;2024-02-21T14:28:40;4.78;;;2.25;;
40591;SDS011;26301;42.832;23.918;2024-02-21T14:31:06;2.75;;;1.80;;
40591;SDS011;26301;42.832;23.918;2024-02-21T14:33:34;2.42;;;1.75;;